Time;durP1;ratioP1;P1;durP2;ratioP2;P2;SDS_P1;SDS_P2;PMS_P1;PMS_P2;Temp;Humidity;BMP_temperature;BMP_pressure;BME280_temperature;BME280_humidity;BME280_pressure;Samples;Min_cycle;Max_cycle;Signal;HPM_P1;HPM_P2
2022/10/16 00:01:30;;;;;;;10.75;9.45;;;;;;;;;;6279422;22;20008;-84
2022/10/16 00:03:57;;;;;;;11.70;10.50;;;;;;;;;;6306762;22;20002;-83
2022/10/16 00:06:23;;;;;;;13.32;11.40;;;;;;;;;;6306925;22;20027;-82
2022/10/16 00:08:50;;;;;;;17.02;11.38;;;;;;;;;;6306684;22;19999;-83
2022/10/16 00:11:21;;;;;;;12.60;10.95;;;;;;;;;;6306931;22;20078;-83
2022/10/16 00:13:48;;;;;;;15.25;11.13;;;;;;;;;;6306527;22;20083;-80
2022/10/16 00:16:15;;;;;;;12.15;9.93;;;;;;;;;;6306965;22;20011;-83
2022/10/16 00:18:41;;;;;;;11.13;9.05;;;;;;;;;;6306483;22;20300;-82
2022/10/16 00:21:12;;;;;;;13.45;9.05;;;;;;;;;;6306719;22;20003;-84
2022/10/16 00:23:39;;;;;;;11.35;9.85;;;;;;;;;;6306641;22;20006;-83
2022/10/16 00:26:07;;;;;;;14.77;9.82;;;;;;;;;;6306896;22;20006;-82
2022/10/16 00:28:33;;;;;;;11.23;9.25;;;;;;;;;;6306651;22;19995;-85
2022/10/16 00:30:59;;;;;;;12.02;9.68;;;;;;;;;;6306672;22;20014;-81
2022/10/16 00:33:25;;;;;;;10.93;8.55;;;;;;;;;;6306735;22;19999;-80
2022/10/16 00:35:52;;;;;;;11.75;9.57;;;;;;;;;;6306499;22;20002;-82
2022/10/16 00:38:18;;;;;;;13.20;9.30;;;;;;;;;;6306707;22;20003;-84
2022/10/16 00:40:44;;;;;;;12.00;9.68;;;;;;;;;;6306211;22;20422;-83
2022/10/16 00:43:13;;;;;;;11.50;10.13;;;;;;;;;;6306703;22;20027;-82
2022/10/16 00:45:39;;;;;;;10.68;9.40;;;;;;;;;;6279130;22;20004;-84
2022/10/16 00:48:11;;;;;;;10.20;8.85;;;;;;;;;;6306353;22;20003;-82
2022/10/16 00:50:38;;;;;;;11.30;10.10;;;;;;;;;;6306324;22;20056;-84
2022/10/16 00:53:04;;;;;;;10.45;9.45;;;;;;;;;;6306558;22;20023;-84
2022/10/16 00:55:30;;;;;;;11.68;9.07;;;;;;;;;;6306516;22;20003;-82
2022/10/16 00:57:57;;;;;;;10.98;9.85;;;;;;;;;;6306418;22;20000;-82
2022/10/16 01:00:25;;;;;;;12.50;10.40;;;;;;;;;;6306312;22;20018;-80
2022/10/16 01:02:58;;;;;;;14.48;12.00;;;;;;;;;;6306297;22;20056;-83
2022/10/16 01:05:31;;;;;;;13.77;11.02;;;;;;;;;;6306479;22;20026;-76
2022/10/16 01:08:03;;;;;;;14.90;12.18;;;;;;;;;;6306105;22;20003;-73
2022/10/16 01:10:47;;;;;;;16.98;12.45;;;;;;;;;;6305632;22;20308;-73
2022/10/16 01:13:18;;;;;;;19.73;14.67;;;;;;;;;;6305807;22;20334;-84
2022/10/16 01:16:08;;;;;;;17.77;13.80;;;;;;;;;;6307072;22;20060;-83
2022/10/16 01:18:52;;;;;;;17.50;13.23;;;;;;;;;;6291065;22;20011;-82
2022/10/16 01:21:30;;;;;;;21.75;16.27;;;;;;;;;;6306426;22;20000;-82
2022/10/16 01:23:59;;;;;;;16.50;13.63;;;;;;;;;;6306543;22;20027;-80
2022/10/16 01:26:37;;;;;;;15.63;13.77;;;;;;;;;;6306296;22;20007;-82
2022/10/16 01:29:15;;;;;;;16.58;12.93;;;;;;;;;;6306496;22;20080;-84
2022/10/16 01:31:43;;;;;;;15.65;12.30;;;;;;;;;;6307224;22;20460;-84
2022/10/16 01:34:15;;;;;;;17.73;12.40;;;;;;;;;;6308113;22;20002;-81
2022/10/16 01:37:00;;;;;;;15.55;12.50;;;;;;;;;;6308497;22;20054;-82
2022/10/16 01:39:26;;;;;;;;;;;;;;;;;;6308886;22;20078;-83
2022/10/16 01:41:57;;;;;;;13.82;11.07;;;;;;;;;;6308107;22;19899;-83
2022/10/16 01:44:26;;;;;;;12.35;11.05;;;;;;;;;;6308271;22;20431;-80
2022/10/16 01:46:53;;;;;;;14.55;10.93;;;;;;;;;;6308029;22;20000;-83
2022/10/16 01:49:20;;;;;;;13.55;10.50;;;;;;;;;;6308284;22;20004;-82
2022/10/16 01:51:48;;;;;;;11.80;10.07;;;;;;;;;;6307936;22;20014;-80
2022/10/16 01:54:15;;;;;;;12.43;9.88;;;;;;;;;;6308308;22;20004;-82
2022/10/16 01:56:41;;;;;;;12.93;10.15;;;;;;;;;;6307703;22;20082;-82
2022/10/16 01:59:11;;;;;;;12.38;10.32;;;;;;;;;;6308014;22;20431;-81
2022/10/16 02:01:39;;;;;;;16.33;12.95;;;;;;;;;;6308003;22;20007;-83
2022/10/16 02:04:12;;;;;;;19.75;15.57;;;;;;;;;;6308170;22;19999;-81
2022/10/16 02:06:38;;;;;;;17.02;13.15;;;;;;;;;;6307772;22;20007;-83
2022/10/16 02:09:04;;;;;;;16.05;13.07;;;;;;;;;;6308020;22;20006;-83
2022/10/16 02:11:31;;;;;;;18.45;13.77;;;;;;;;;;6307920;22;20007;-81
2022/10/16 02:14:02;;;;;;;20.63;14.25;;;;;;;;;;6307840;22;20070;-80
2022/10/16 02:16:42;;;;;;;17.17;14.02;;;;;;;;;;6307966;22;20495;-84
2022/10/16 02:19:08;;;;;;;24.02;16.42;;;;;;;;;;6308077;22;20011;-80
2022/10/16 02:21:38;;;;;;;16.35;12.48;;;;;;;;;;6307741;22;20482;-83
2022/10/16 02:24:22;;;;;;;13.75;10.65;;;;;;;;;;6308296;22;20010;-81
2022/10/16 02:27:08;;;;;;;10.77;9.73;;;;;;;;;;6307912;22;20023;-81
2022/10/16 02:29:37;;;;;;;13.95;10.40;;;;;;;;;;6308237;22;20027;-81
2022/10/16 02:32:05;;;;;;;11.27;10.02;;;;;;;;;;6307492;22;20437;-81
2022/10/16 02:34:32;;;;;;;12.48;10.75;;;;;;;;;;6307696;22;20055;-83
2022/10/16 02:37:00;;;;;;;11.27;9.23;;;;;;;;;;6307628;22;19999;-84
2022/10/16 02:39:27;;;;;;;11.88;9.18;;;;;;;;;;6307941;22;19999;-81
2022/10/16 02:41:54;;;;;;;11.20;9.45;;;;;;;;;;6307637;22;20026;-83
2022/10/16 02:44:20;;;;;;;11.65;10.27;;;;;;;;;;6307433;22;20003;-82
2022/10/16 02:46:46;;;;;;;11.23;9.05;;;;;;;;;;6307671;22;20006;-83
2022/10/16 02:49:12;;;;;;;11.20;8.95;;;;;;;;;;6307368;22;19996;-84
2022/10/16 02:51:38;;;;;;;11.75;8.27;;;;;;;;;;6307708;22;20003;-82
2022/10/16 02:54:04;;;;;;;13.00;9.98;;;;;;;;;;6307258;22;20006;-83
2022/10/16 02:56:30;;;;;;;10.20;9.20;;;;;;;;;;6307590;22;20052;-81
2022/10/16 02:58:57;;;;;;;11.57;9.65;;;;;;;;;;6307349;22;20471;-84
2022/10/16 03:01:23;;;;;;;11.48;9.55;;;;;;;;;;6307189;22;20086;-82
2022/10/16 03:03:49;;;;;;;12.88;9.77;;;;;;;;;;6307523;22;20007;-80
2022/10/16 03:06:16;;;;;;;11.05;9.95;;;;;;;;;;6307219;22;19996;-81
2022/10/16 03:08:42;;;;;;;12.00;10.65;;;;;;;;;;6307428;22;20041;-82
2022/10/16 03:11:08;;;;;;;10.57;8.60;;;;;;;;;;6307053;22;20008;-81
2022/10/16 03:13:34;;;;;;;10.45;8.98;;;;;;;;;;6307332;22;20078;-83
2022/10/16 03:16:00;;;;;;;8.70;7.80;;;;;;;;;;6307345;22;20007;-80
2022/10/16 03:18:26;;;;;;;10.52;8.23;;;;;;;;;;6307419;22;20304;-82
2022/10/16 03:20:52;;;;;;;9.32;7.82;;;;;;;;;;6307465;22;20066;-82
2022/10/16 03:23:18;;;;;;;16.00;14.30;;;;;;;;;;6307186;22;20041;-80
2022/10/16 03:25:44;;;;;;;56.40;38.38;;;;;;;;;;6307481;22;20022;-83
2022/10/16 03:28:10;;;;;;;11.52;9.70;;;;;;;;;;6307200;22;20070;-81
2022/10/16 03:30:36;;;;;;;11.73;10.13;;;;;;;;;;6307193;22;20011;-81
2022/10/16 03:33:02;;;;;;;10.48;8.57;;;;;;;;;;6279811;22;19999;-82
2022/10/16 03:35:29;;;;;;;17.50;15.70;;;;;;;;;;6307069;22;19995;-83
2022/10/16 03:37:56;;;;;;;15.82;12.60;;;;;;;;;;6307300;22;20002;-83
2022/10/16 03:40:22;;;;;;;14.23;9.93;;;;;;;;;;6307013;22;20031;-81
2022/10/16 03:42:48;;;;;;;13.13;9.32;;;;;;;;;;6307362;22;20304;-82
2022/10/16 03:45:14;;;;;;;12.88;8.80;;;;;;;;;;6306873;22;20055;-81
2022/10/16 03:47:41;;;;;;;11.40;8.98;;;;;;;;;;6307135;22;20303;-80
2022/10/16 03:50:07;;;;;;;11.38;9.68;;;;;;;;;;6305541;22;19999;-84
2022/10/16 03:52:33;;;;;;;9.93;8.80;;;;;;;;;;6306941;22;20003;-83
2022/10/16 03:54:59;;;;;;;11.73;10.05;;;;;;;;;;6304711;22;20004;-83
2022/10/16 03:57:25;;;;;;;14.70;13.20;;;;;;;;;;6279435;22;20023;-83
2022/10/16 03:59:52;;;;;;;14.68;13.27;;;;;;;;;;6306751;22;20140;-80
2022/10/16 04:02:18;;;;;;;14.30;12.43;;;;;;;;;;6306984;22;20338;-81
2022/10/16 04:04:44;;;;;;;20.85;15.48;;;;;;;;;;6306938;22;19996;-83
2022/10/16 04:07:10;;;;;;;22.73;15.25;;;;;;;;;;6306882;22;20377;-82
2022/10/16 04:09:36;;;;;;;17.40;13.23;;;;;;;;;;6306747;22;20000;-82
2022/10/16 04:12:02;;;;;;;15.45;11.57;;;;;;;;;;6279362;22;20339;-83
2022/10/16 04:14:28;;;;;;;14.82;11.27;;;;;;;;;;6279444;22;20430;-81
2022/10/16 04:16:54;;;;;;;11.50;10.27;;;;;;;;;;6306945;22;20037;-85
2022/10/16 04:19:21;;;;;;;14.20;12.10;;;;;;;;;;6306791;22;20003;-84
2022/10/16 04:21:47;;;;;;;19.05;13.13;;;;;;;;;;6306486;22;20295;-81
2022/10/16 04:24:13;;;;;;;17.52;13.50;;;;;;;;;;6306822;22;20003;-83
2022/10/16 04:26:39;;;;;;;14.85;12.95;;;;;;;;;;6306540;22;19999;-82
2022/10/16 04:29:06;;;;;;;20.95;15.85;;;;;;;;;;6306696;22;20029;-81
2022/10/16 04:31:32;;;;;;;22.77;16.38;;;;;;;;;;6306495;22;20011;-85
2022/10/16 04:33:59;;;;;;;19.63;17.13;;;;;;;;;;6306876;22;20002;-81
2022/10/16 04:36:25;;;;;;;20.10;16.70;;;;;;;;;;6306616;22;20003;-85
2022/10/16 04:38:51;;;;;;;32.45;22.27;;;;;;;;;;6306661;22;20079;-83
2022/10/16 04:41:17;;;;;;;30.20;23.70;;;;;;;;;;6306673;22;19995;-82
2022/10/16 04:43:43;;;;;;;30.80;22.02;;;;;;;;;;6306505;22;19995;-82
2022/10/16 04:46:10;;;;;;;33.53;24.50;;;;;;;;;;6306781;22;20003;-82
2022/10/16 04:48:36;;;;;;;74.97;60.38;;;;;;;;;;6306541;22;20052;-82
2022/10/16 04:51:02;;;;;;;21.48;16.60;;;;;;;;;;6306609;22;20334;-86
2022/10/16 04:53:28;;;;;;;19.83;16.10;;;;;;;;;;6306643;22;20006;-85
2022/10/16 04:55:54;;;;;;;16.73;11.00;;;;;;;;;;6306605;22;20332;-84
2022/10/16 04:58:20;;;;;;;12.40;11.10;;;;;;;;;;6306695;22;20000;-83
2022/10/16 05:00:46;;;;;;;12.27;10.48;;;;;;;;;;6306178;22;20034;-85
2022/10/16 05:03:13;;;;;;;13.70;11.65;;;;;;;;;;6306641;22;20000;-82
2022/10/16 05:05:43;;;;;;;15.43;12.13;;;;;;;;;;6306554;22;20049;-82
2022/10/16 05:08:09;;;;;;;23.30;19.80;;;;;;;;;;6308707;22;20014;-83
2022/10/16 05:10:35;;;;;;;37.38;29.25;;;;;;;;;;6308560;22;19999;-84
2022/10/16 05:13:01;;;;;;;31.55;26.02;;;;;;;;;;6308498;22;19995;-86
2022/10/16 05:15:28;;;;;;;20.98;17.63;;;;;;;;;;6309195;22;20023;-84
2022/10/16 05:17:55;;;;;;;18.73;16.73;;;;;;;;;;6308175;22;20008;-83
2022/10/16 05:20:21;;;;;;;17.05;14.70;;;;;;;;;;6308584;22;20011;-84
2022/10/16 05:22:47;;;;;;;17.70;14.75;;;;;;;;;;6308315;22;20003;-83
2022/10/16 05:25:13;;;;;;;112.03;80.05;;;;;;;;;;6308538;22;19999;-85
2022/10/16 05:27:39;;;;;;;31.05;24.90;;;;;;;;;;6308466;22;20044;-84
2022/10/16 05:30:06;;;;;;;34.97;27.83;;;;;;;;;;6281006;22;20042;-85
2022/10/16 05:32:32;;;;;;;39.55;33.20;;;;;;;;;;6308417;22;20003;-85
2022/10/16 05:34:59;;;;;;;35.28;30.15;;;;;;;;;;6308102;22;19999;-85
2022/10/16 05:37:26;;;;;;;37.03;29.98;;;;;;;;;;6308398;22;20050;-84
2022/10/16 05:39:52;;;;;;;26.05;22.90;;;;;;;;;;6308073;22;19999;-82
2022/10/16 05:42:18;;;;;;;94.68;71.32;;;;;;;;;;6308286;22;20087;-84
2022/10/16 05:44:44;;;;;;;105.32;65.90;;;;;;;;;;6308567;22;20003;-86
2022/10/16 05:47:11;;;;;;;27.08;21.90;;;;;;;;;;6280893;22;20296;-85
2022/10/16 05:49:37;;;;;;;81.40;65.47;;;;;;;;;;6280956;22;20003;-84
2022/10/16 05:52:03;;;;;;;37.10;30.50;;;;;;;;;;6307804;22;20003;-83
2022/10/16 05:54:29;;;;;;;31.33;27.50;;;;;;;;;;6308193;22;20427;-86
2022/10/16 05:56:55;;;;;;;26.52;20.65;;;;;;;;;;6280685;22;20010;-82
2022/10/16 05:59:21;;;;;;;22.70;20.27;;;;;;;;;;6307885;22;20022;-83
2022/10/16 06:01:47;;;;;;;22.65;19.95;;;;;;;;;;6308188;22;19995;-86
2022/10/16 06:04:13;;;;;;;36.63;29.77;;;;;;;;;;6307974;22;20022;-83
2022/10/16 06:06:39;;;;;;;47.78;38.83;;;;;;;;;;6308241;22;20071;-83
2022/10/16 06:09:05;;;;;;;45.95;38.83;;;;;;;;;;6307862;22;20006;-86
2022/10/16 06:11:33;;;;;;;40.15;35.83;;;;;;;;;;6308168;22;20308;-87
2022/10/16 06:14:02;;;;;;;41.42;31.92;;;;;;;;;;6307889;22;20054;-83
2022/10/16 06:16:28;;;;;;;36.30;31.08;;;;;;;;;;6280720;22;20007;-84
2022/10/16 06:18:56;;;;;;;48.40;40.55;;;;;;;;;;6307282;22;19999;-87
2022/10/16 06:21:24;;;;;;;61.38;47.88;;;;;;;;;;6308014;22;20423;-84
2022/10/16 06:23:50;;;;;;;52.88;35.17;;;;;;;;;;6307906;22;20008;-86
2022/10/16 06:26:18;;;;;;;56.30;40.30;;;;;;;;;;6307849;22;20007;-86
2022/10/16 06:28:44;;;;;;;46.10;36.75;;;;;;;;;;6308001;22;20026;-83
2022/10/16 06:31:11;;;;;;;41.67;32.83;;;;;;;;;;6307614;22;20011;-84
2022/10/16 06:33:37;;;;;;;31.92;25.25;;;;;;;;;;6307962;22;20006;-84
2022/10/16 06:36:08;;;;;;;35.10;27.85;;;;;;;;;;6280229;22;20031;-84
2022/10/16 06:38:34;;;;;;;35.20;28.80;;;;;;;;;;6307889;22;19999;-82
2022/10/16 06:41:00;;;;;;;32.33;25.98;;;;;;;;;;6280190;22;20500;-82
2022/10/16 06:43:26;;;;;;;33.20;28.10;;;;;;;;;;6280446;22;20003;-83
2022/10/16 06:45:53;;;;;;;30.85;24.65;;;;;;;;;;6307619;22;19996;-83
2022/10/16 06:48:20;;;;;;;22.35;19.52;;;;;;;;;;6307741;22;20003;-83
2022/10/16 06:50:55;;;;;;;21.08;17.58;;;;;;;;;;6307712;22;20035;-84
2022/10/16 06:53:21;;;;;;;20.00;17.90;;;;;;;;;;6307636;22;20019;-81
2022/10/16 06:55:48;;;;;;;20.10;18.00;;;;;;;;;;6307538;22;20022;-82
2022/10/16 06:58:14;;;;;;;22.60;18.50;;;;;;;;;;6307421;22;19999;-82
2022/10/16 07:00:40;;;;;;;22.40;18.00;;;;;;;;;;6307461;22;20015;-84
2022/10/16 07:03:06;;;;;;;22.67;18.70;;;;;;;;;;6307286;22;19996;-83
2022/10/16 07:05:32;;;;;;;23.13;18.90;;;;;;;;;;6307594;22;19995;-87
2022/10/16 07:07:58;;;;;;;24.27;19.15;;;;;;;;;;6307218;22;20078;-85
2022/10/16 07:10:24;;;;;;;21.42;18.80;;;;;;;;;;6307420;22;20007;-86
2022/10/16 07:12:50;;;;;;;22.30;17.88;;;;;;;;;;6307364;22;20054;-82
2022/10/16 07:15:16;;;;;;;21.80;16.23;;;;;;;;;;6307639;22;20078;-85
2022/10/16 07:17:42;;;;;;;21.15;16.60;;;;;;;;;;6307244;22;20003;-83
2022/10/16 07:20:09;;;;;;;22.58;16.23;;;;;;;;;;6307118;22;20076;-84
2022/10/16 07:22:35;;;;;;;16.27;13.35;;;;;;;;;;6280199;22;20002;-84
2022/10/16 07:25:01;;;;;;;17.02;14.25;;;;;;;;;;6307064;22;20002;-83
2022/10/16 07:27:27;;;;;;;18.98;15.05;;;;;;;;;;6307738;22;20004;-85
2022/10/16 07:29:53;;;;;;;19.45;15.57;;;;;;;;;;6307317;22;20022;-86
2022/10/16 07:32:19;;;;;;;25.13;18.40;;;;;;;;;;6306864;22;20461;-85
2022/10/16 07:34:45;;;;;;;18.88;15.93;;;;;;;;;;6307255;22;20003;-86
2022/10/16 07:37:11;;;;;;;21.35;16.75;;;;;;;;;;6307032;22;20003;-83
2022/10/16 07:39:38;;;;;;;18.15;15.98;;;;;;;;;;6307231;22;20003;-82
2022/10/16 07:42:04;;;;;;;18.27;14.93;;;;;;;;;;6307037;22;20415;-86
2022/10/16 07:44:30;;;;;;;21.38;15.95;;;;;;;;;;6306903;22;20007;-82
2022/10/16 07:46:56;;;;;;;17.85;15.95;;;;;;;;;;6279726;22;20473;-85
2022/10/16 07:49:22;;;;;;;16.23;14.48;;;;;;;;;;6253918;22;20527;-85
2022/10/16 07:51:48;;;;;;;19.25;16.02;;;;;;;;;;6307048;22;20014;-83
2022/10/16 07:54:15;;;;;;;16.85;14.63;;;;;;;;;;6306783;22;20007;-86
2022/10/16 07:56:41;;;;;;;15.57;13.77;;;;;;;;;;6307023;22;20373;-85
2022/10/16 07:59:07;;;;;;;16.08;14.05;;;;;;;;;;6306781;22;20002;-81
2022/10/16 08:01:33;;;;;;;18.60;14.38;;;;;;;;;;6306777;22;20007;-83
2022/10/16 08:03:59;;;;;;;17.65;13.45;;;;;;;;;;6307026;22;20007;-86
2022/10/16 08:06:25;;;;;;;17.00;14.32;;;;;;;;;;6306661;22;19991;-83
2022/10/16 08:08:51;;;;;;;16.75;13.40;;;;;;;;;;6306928;22;20010;-86
2022/10/16 08:11:17;;;;;;;16.75;13.80;;;;;;;;;;6278839;22;20031;-82
2022/10/16 08:13:44;;;;;;;16.25;14.00;;;;;;;;;;6306674;22;19995;-85
2022/10/16 08:16:10;;;;;;;15.35;13.10;;;;;;;;;;6306946;22;20434;-83
2022/10/16 08:18:37;;;;;;;15.23;13.13;;;;;;;;;;6306835;22;19996;-85
2022/10/16 08:21:04;;;;;;;13.80;12.32;;;;;;;;;;6306843;22;20003;-82
2022/10/16 08:23:30;;;;;;;13.77;12.05;;;;;;;;;;6306584;22;20080;-86
2022/10/16 08:26:02;;;;;;;12.45;10.07;;;;;;;;;;6306800;22;20007;-83
2022/10/16 08:28:28;;;;;;;13.45;11.02;;;;;;;;;;6306459;22;20033;-84
2022/10/16 08:30:56;;;;;;;11.93;10.70;;;;;;;;;;6306715;22;20339;-86
2022/10/16 08:33:22;;;;;;;13.80;11.40;;;;;;;;;;6279207;22;20003;-84
2022/10/16 08:35:55;;;;;;;12.75;11.35;;;;;;;;;;6306803;22;19999;-81
2022/10/16 08:38:21;;;;;;;15.02;13.48;;;;;;;;;;6306427;22;20125;-83
2022/10/16 08:40:47;;;;;;;12.73;11.02;;;;;;;;;;6306381;22;20003;-85
2022/10/16 08:43:20;;;;;;;13.40;10.57;;;;;;;;;;6306511;22;20450;-83
2022/10/16 08:46:05;;;;;;;10.98;9.75;;;;;;;;;;6279255;22;20014;-83
2022/10/16 08:48:50;;;;;;;12.13;9.98;;;;;;;;;;6306561;22;20010;-85
2022/10/16 08:51:20;;;;;;;13.15;9.85;;;;;;;;;;6306482;22;20007;-83
2022/10/16 08:54:05;;;;;;;9.27;8.27;;;;;;;;;;6304784;22;20003;-83
2022/10/16 08:56:33;;;;;;;8.80;7.55;;;;;;;;;;6304708;22;20005;-84
2022/10/16 08:58:59;;;;;;;10.27;6.95;;;;;;;;;;6279259;22;20017;-83
2022/10/16 09:01:30;;;;;;;7.70;6.45;;;;;;;;;;6306194;22;20011;-81
2022/10/16 09:03:59;;;;;;;8.40;6.68;;;;;;;;;;6306518;22;20007;-81
2022/10/16 09:06:40;;;;;;;8.70;7.57;;;;;;;;;;6306252;22;20450;-82
2022/10/16 09:09:15;;;;;;;9.48;8.20;;;;;;;;;;6305028;22;20007;-81
2022/10/16 09:12:00;;;;;;;7.32;6.18;;;;;;;;;;6306851;22;20007;-83
2022/10/16 09:14:45;;;;;;;7.57;6.07;;;;;;;;;;6306752;22;20004;-84
2022/10/16 09:17:29;;;;;;;8.25;6.57;;;;;;;;;;6305163;22;20142;-82
2022/10/16 09:19:55;;;;;;;;;;;;;;;;;;6307137;22;20018;-82
2022/10/16 09:22:22;;;;;;;8.98;6.53;;;;;;;;;;6304729;22;20318;-85
2022/10/16 09:24:48;;;;;;;7.72;6.53;;;;;;;;;;6306624;22;20000;-81
2022/10/16 09:27:15;;;;;;;7.68;6.53;;;;;;;;;;6306342;22;20093;-82
2022/10/16 09:29:41;;;;;;;7.85;6.63;;;;;;;;;;6306253;22;20003;-82
2022/10/16 09:32:15;;;;;;;6.43;5.57;;;;;;;;;;6306428;22;20450;-82
2022/10/16 09:34:44;;;;;;;7.60;6.72;;;;;;;;;;6306384;22;20431;-81
2022/10/16 09:37:13;;;;;;;8.85;6.38;;;;;;;;;;6304633;22;20003;-83
2022/10/16 09:40:05;;;;;;;7.47;5.30;;;;;;;;;;6306441;22;20445;-82
2022/10/16 09:42:32;;;;;;;7.40;5.95;;;;;;;;;;6301948;22;20071;-80
2022/10/16 09:44:59;;;;;;;8.32;7.40;;;;;;;;;;6306038;22;20449;-83
2022/10/16 09:47:26;;;;;;;7.03;5.40;;;;;;;;;;6306373;22;20011;-83
2022/10/16 09:49:57;;;;;;;7.68;6.88;;;;;;;;;;6306164;22;20029;-81
2022/10/16 09:52:24;;;;;;;8.38;6.13;;;;;;;;;;6306953;22;20421;-83
2022/10/16 09:54:57;;;;;;;7.15;5.55;;;;;;;;;;6308075;22;19999;-86
2022/10/16 09:57:23;;;;;;;8.38;6.00;;;;;;;;;;6308037;22;20020;-82
2022/10/16 09:59:56;;;;;;;6.88;6.18;;;;;;;;;;6307747;22;20038;-81
2022/10/16 10:02:30;;;;;;;12.00;9.23;;;;;;;;;;6308121;22;20026;-83
2022/10/16 10:04:57;;;;;;;9.05;7.40;;;;;;;;;;6308087;22;19999;-84
2022/10/16 10:07:41;;;;;;;8.70;7.28;;;;;;;;;;6308045;22;20364;-83
2022/10/16 10:10:07;;;;;;;;;;;;;;;;;;6308633;22;19999;-82
2022/10/16 10:12:36;;;;;;;12.60;8.10;;;;;;;;;;6307578;22;19997;-83
2022/10/16 10:15:11;;;;;;;8.20;6.20;;;;;;;;;;6307937;22;20434;-83
2022/10/16 10:17:46;;;;;;;8.93;6.65;;;;;;;;;;6307727;22;20007;-84
2022/10/16 10:20:22;;;;;;;9.63;6.65;;;;;;;;;;6307684;22;20082;-83
2022/10/16 10:22:48;;;;;;;7.57;6.78;;;;;;;;;;6307983;22;20331;-83
2022/10/16 10:25:14;;;;;;;12.77;8.32;;;;;;;;;;6307631;22;20078;-83
2022/10/16 10:27:59;;;;;;;7.63;6.93;;;;;;;;;;6306250;22;20397;-82
2022/10/16 10:30:30;;;;;;;8.23;7.32;;;;;;;;;;6307853;22;20013;-81
2022/10/16 10:33:15;;;;;;;8.45;6.95;;;;;;;;;;6307694;22;20018;-81
2022/10/16 10:35:41;;;;;;;;;;;;;;;;;;6308092;22;20074;-80
2022/10/16 10:38:12;;;;;;;9.02;6.50;;;;;;;;;;6307814;22;19899;-81
2022/10/16 10:40:47;;;;;;;7.57;6.88;;;;;;;;;;6306039;22;20007;-83
2022/10/16 10:43:20;;;;;;;6.88;6.18;;;;;;;;;;6307823;22;19991;-84
2022/10/16 10:45:47;;;;;;;6.65;5.95;;;;;;;;;;6307789;22;20038;-81
2022/10/16 10:48:13;;;;;;;6.88;5.88;;;;;;;;;;6307756;22;20331;-83
2022/10/16 10:50:53;;;;;;;8.32;7.13;;;;;;;;;;6307542;22;20000;-83
2022/10/16 10:53:25;;;;;;;7.53;6.30;;;;;;;;;;6307589;22;20004;-83
2022/10/16 10:56:10;;;;;;;8.30;5.80;;;;;;;;;;6307570;22;19995;-81
2022/10/16 10:58:35;;;;;;;;;;;;;;;;;;6308118;22;20431;-84
2022/10/16 11:01:20;;;;;;;6.18;5.35;;;;;;;;;;6307133;22;19917;-81
2022/10/16 11:03:46;;;;;;;;;;;;;;;;;;6307543;22;19999;-82
2022/10/16 11:06:32;;;;;;;5.90;4.65;;;;;;;;;;6307591;22;19906;-80
2022/10/16 11:09:01;;;;;;;5.32;4.50;;;;;;;;;;6307276;22;20000;-83
2022/10/16 11:11:38;;;;;;;5.20;4.18;;;;;;;;;;6307158;22;20003;-82
2022/10/16 11:14:12;;;;;;;5.10;4.57;;;;;;;;;;6307517;22;20053;-82
2022/10/16 11:16:47;;;;;;;6.85;4.55;;;;;;;;;;6307593;22;20007;-83
2022/10/16 11:19:32;;;;;;;6.45;4.68;;;;;;;;;;6307148;22;19999;-83
2022/10/16 11:21:58;;;;;;;;;;;;;;;;;;6307634;22;20066;-81
2022/10/16 11:24:32;;;;;;;5.10;4.53;;;;;;;;;;6307504;22;20718;-81
2022/10/16 11:27:02;;;;;;;7.40;4.95;;;;;;;;;;6305601;22;20000;-81
2022/10/16 11:29:30;;;;;;;5.13;4.53;;;;;;;;;;6307331;22;19999;-81
2022/10/16 11:32:02;;;;;;;5.90;5.07;;;;;;;;;;6307194;22;20062;-82
2022/10/16 11:34:41;;;;;;;5.47;4.85;;;;;;;;;;6307410;22;20003;-81
2022/10/16 11:37:26;;;;;;;5.72;4.90;;;;;;;;;;6307082;22;20074;-81
2022/10/16 11:39:57;;;;;;;4.63;4.15;;;;;;;;;;6307246;22;20383;-82
2022/10/16 11:42:43;;;;;;;5.47;4.97;;;;;;;;;;6305570;22;20343;-80
2022/10/16 11:45:18;;;;;;;8.23;6.43;;;;;;;;;;6306534;22;20003;-80
2022/10/16 11:47:45;;;;;;;6.05;4.90;;;;;;;;;;6307021;22;20423;-80
2022/10/16 11:50:17;;;;;;;7.05;5.00;;;;;;;;;;6307272;22;19992;-78
2022/10/16 11:52:56;;;;;;;5.85;5.22;;;;;;;;;;6306586;22;20335;-79
2022/10/16 11:55:24;;;;;;;6.00;5.00;;;;;;;;;;6306394;22;20003;-82
2022/10/16 11:57:53;;;;;;;18.80;14.90;;;;;;;;;;6306973;22;20434;-81
2022/10/16 12:00:19;;;;;;;6.15;4.70;;;;;;;;;;6306757;22;20065;-81
2022/10/16 12:03:04;;;;;;;7.57;4.90;;;;;;;;;;6306660;22;20002;-81
2022/10/16 12:05:49;;;;;;;5.03;4.25;;;;;;;;;;6306753;22;20042;-83
2022/10/16 12:08:15;;;;;;;;;;;;;;;;;;6307223;22;20070;-81
2022/10/16 12:10:43;;;;;;;7.13;4.95;;;;;;;;;;6306791;22;19945;-82
2022/10/16 12:13:27;;;;;;;5.82;5.03;;;;;;;;;;6306696;22;20074;-82
2022/10/16 12:16:04;;;;;;;5.70;5.05;;;;;;;;;;6306206;22;19999;-82
2022/10/16 12:18:30;;;;;;;7.32;4.10;;;;;;;;;;6306890;22;20007;-82
2022/10/16 12:21:05;;;;;;;5.82;4.68;;;;;;;;;;6306624;22;19999;-82
2022/10/16 12:23:31;;;;;;;5.35;4.82;;;;;;;;;;6306648;22;19999;-83
2022/10/16 12:26:02;;;;;;;8.70;4.50;;;;;;;;;;6304970;22;20003;-81
2022/10/16 12:28:30;;;;;;;6.68;4.53;;;;;;;;;;6306683;22;20438;-81
2022/10/16 12:30:58;;;;;;;9.43;6.70;;;;;;;;;;6306589;22;20083;-82
2022/10/16 12:33:25;;;;;;;5.70;4.30;;;;;;;;;;6306604;22;20049;-81
2022/10/16 12:35:52;;;;;;;5.72;4.32;;;;;;;;;;6306490;22;20000;-82
2022/10/16 12:38:26;;;;;;;5.63;4.13;;;;;;;;;;6306771;22;20330;-80
2022/10/16 12:41:12;;;;;;;5.23;4.67;;;;;;;;;;6306845;22;20022;-83
2022/10/16 12:43:42;;;;;;;7.25;4.53;;;;;;;;;;6306707;22;20022;-83
2022/10/16 12:46:11;;;;;;;8.57;4.95;;;;;;;;;;6306656;22;20058;-81
2022/10/16 12:48:38;;;;;;;6.00;4.40;;;;;;;;;;6306572;22;19995;-82
2022/10/16 12:51:24;;;;;;;4.68;4.25;;;;;;;;;;6306405;22;20486;-79
2022/10/16 12:54:09;;;;;;;4.70;4.30;;;;;;;;;;6306638;22;19999;-82
2022/10/16 12:56:38;;;;;;;10.88;9.77;;;;;;;;;;6306558;22;19995;-82
2022/10/16 12:59:04;;;;;;;7.90;4.63;;;;;;;;;;6306373;22;19999;-82
2022/10/16 13:01:37;;;;;;;4.72;3.55;;;;;;;;;;6305092;22;20060;-82
2022/10/16 13:04:15;;;;;;;4.68;4.22;;;;;;;;;;6305134;22;20011;-82
2022/10/16 13:06:48;;;;;;;8.23;5.18;;;;;;;;;;6306441;22;19995;-81
2022/10/16 13:09:14;;;;;;;6.43;5.50;;;;;;;;;;6306478;22;20416;-82
2022/10/16 13:11:40;;;;;;;7.60;5.15;;;;;;;;;;6306297;22;20034;-82
2022/10/16 13:14:25;;;;;;;6.47;5.00;;;;;;;;;;6306702;22;20318;-81
2022/10/16 13:16:51;;;;;;;5.07;4.18;;;;;;;;;;6306541;22;20004;-82
2022/10/16 13:19:22;;;;;;;6.15;4.85;;;;;;;;;;6306346;22;19995;-81
2022/10/16 13:22:00;;;;;;;5.53;4.70;;;;;;;;;;6306521;22;20097;-82
2022/10/16 13:24:38;;;;;;;6.57;4.72;;;;;;;;;;6306488;22;20093;-81
2022/10/16 13:27:13;;;;;;;5.75;4.22;;;;;;;;;;6306845;22;20000;-83
2022/10/16 13:29:41;;;;;;;5.90;4.35;;;;;;;;;;6308314;22;19999;-81
2022/10/16 13:32:12;;;;;;;7.95;4.18;;;;;;;;;;6308398;22;20011;-81
2022/10/16 13:34:48;;;;;;;4.75;3.55;;;;;;;;;;6308398;22;20005;-81
2022/10/16 13:37:19;;;;;;;4.85;3.60;;;;;;;;;;6308522;22;20005;-82
2022/10/16 13:39:46;;;;;;;4.07;3.40;;;;;;;;;;6308159;22;20006;-82
2022/10/16 13:42:23;;;;;;;5.97;4.03;;;;;;;;;;6308462;22;20010;-82
2022/10/16 13:44:51;;;;;;;6.03;4.65;;;;;;;;;;6308372;22;20010;-81
2022/10/16 13:47:21;;;;;;;6.22;4.10;;;;;;;;;;6308133;22;20300;-81
2022/10/16 13:49:47;;;;;;;8.43;6.03;;;;;;;;;;6308333;22;20087;-81
2022/10/16 13:52:32;;;;;;;7.47;5.20;;;;;;;;;;6308157;22;20008;-83
2022/10/16 13:54:58;;;;;;;;;;;;;;;;;;6308121;22;20003;-82
2022/10/16 13:57:25;;;;;;;6.55;4.28;;;;;;;;;;6308204;22;19898;-81
2022/10/16 13:59:51;;;;;;;4.60;3.15;;;;;;;;;;6307985;22;20076;-81
2022/10/16 14:02:22;;;;;;;5.50;4.00;;;;;;;;;;6307824;22;19999;-83
2022/10/16 14:04:49;;;;;;;4.30;3.35;;;;;;;;;;6308117;22;19995;-81
2022/10/16 14:07:19;;;;;;;12.38;8.18;;;;;;;;;;6307909;22;19991;-81
2022/10/16 14:09:48;;;;;;;7.55;4.93;;;;;;;;;;6308043;22;20003;-82
2022/10/16 14:12:14;;;;;;;3.90;3.50;;;;;;;;;;6307733;22;20042;-82
2022/10/16 14:14:47;;;;;;;5.72;3.90;;;;;;;;;;6307837;22;20011;-83
2022/10/16 14:17:14;;;;;;;6.28;4.65;;;;;;;;;;6307795;22;20012;-82
2022/10/16 14:19:41;;;;;;;6.07;3.70;;;;;;;;;;6307992;22;20003;-82
2022/10/16 14:22:19;;;;;;;5.10;4.53;;;;;;;;;;6307822;22;19999;-81
2022/10/16 14:24:46;;;;;;;5.43;4.65;;;;;;;;;;6307808;22;20066;-82
2022/10/16 14:27:30;;;;;;;6.28;4.15;;;;;;;;;;6308000;22;20004;-82
2022/10/16 14:29:56;;;;;;;;;;;;;;;;;;6308532;22;19999;-81
2022/10/16 14:32:23;;;;;;;9.10;5.50;;;;;;;;;;6307884;22;19962;-81
2022/10/16 14:34:54;;;;;;;5.32;4.32;;;;;;;;;;6307789;22;20003;-82
2022/10/16 14:37:29;;;;;;;4.90;4.43;;;;;;;;;;6307883;22;20000;-82
2022/10/16 14:39:56;;;;;;;4.80;4.13;;;;;;;;;;6307389;22;19999;-81
2022/10/16 14:42:24;;;;;;;5.45;4.90;;;;;;;;;;6307569;22;20003;-81
2022/10/16 14:44:54;;;;;;;9.13;6.90;;;;;;;;;;6307791;22;20076;-81